Monday, December 22, 2014, 3:26 AM EST

KGED, Georgetown Sussex Co Airport

Location: Georgetown, DE, United States Lat: 38.683
Local Time: 3:26 AM EST ( 8:26 GMT) Lon: -75.367
Time Zone: US/Eastern Elev: 52 ft

Show me the last for .
Show Decoded

2014-12-22 02:54 METAR KGED 220754Z AUTO 00000KT 7SM CLR M03/M05 A3032 RMK AO2 SLP269 T10281050 =
2014-12-22 01:54 METAR KGED 220654Z AUTO 00000KT 8SM CLR M01/M04 A3032 RMK AO2 SLP268 T10111039 =
2014-12-22 00:54 METAR KGED 220554Z AUTO 03003KT 6SM BR CLR M03/M05 A3031 RMK AO2 SLP265
                 T10331050 11006 21033 58007 =
2014-12-21 23:54 METAR KGED 220454Z AUTO 36003KT 6SM HZ CLR M02/M05 A3033 RMK AO2 SLP269
                 T10221050 400611033 =
2014-12-21 22:54 METAR KGED 220354Z AUTO 00000KT 6SM HZ CLR M03/M06 A3034 RMK AO2 SLP273
                 T10281056 =
2014-12-21 21:54 METAR KGED 220254Z AUTO 00000KT 7SM CLR M02/M05 A3033 RMK AO2 SLP272 T10221050
                 58000 =
2014-12-21 20:54 METAR KGED 220154Z AUTO 00000KT 6SM HZ CLR M02/M05 A3034 RMK AO2 SLP275
                 T10221050 =
2014-12-21 19:54 METAR KGED 220054Z AUTO 00000KT 6SM HZ CLR M02/M05 A3033 RMK AO2 SLP271
                 T10221050 =
2014-12-21 18:54 METAR KGED 212354Z AUTO 00000KT 6SM HZ CLR M02/M04 A3034 RMK AO2 SLP272
                 T10171044 10061 21017 51014 =
2014-12-21 17:54 METAR KGED 212254Z AUTO 00000KT 8SM CLR 01/M04 A3033 RMK AO2 SLP272 T00111039 =
2014-12-21 16:54 METAR KGED 212154Z AUTO 07004KT 8SM CLR 02/M04 A3031 RMK AO2 SLP263 T00221039 =
2014-12-21 15:54 METAR KGED 212054Z AUTO 00000KT 10SM CLR 06/M04 A3029 RMK AO2 SLP258 T00561044
                 55006 =
2014-12-21 14:54 METAR KGED 211954Z AUTO 32004KT 9SM CLR 05/M04 A3029 RMK AO2 SLP257 T00501044 =
2014-12-21 13:54 METAR KGED 211854Z AUTO 30004KT 9SM CLR 06/M04 A3030 RMK AO2 SLP260 T00561044 =
2014-12-21 12:54 METAR KGED 211754Z AUTO 29006KT 9SM SCT070 05/M05 A3031 RMK AO2 SLP264 T00501050
                 10050 21006 58016 =
2014-12-21 11:54 METAR KGED 211654Z AUTO VRB05KT 9SM OVC075 03/M05 A3033 RMK AO2 SLP270 T00331050
                 =
2014-12-21 10:54 METAR KGED 211554Z AUTO VRB04KT 8SM OVC075 03/M05 A3035 RMK AO2 SLP278 T00281050
                 =
2014-12-21 09:54 METAR KGED 211454Z AUTO 33003KT 8SM OVC065 01/M04 A3036 RMK AO2 SLP281 T00111039
                 53007 =
2014-12-21 08:54 METAR KGED 211354Z AUTO 00000KT 7SM OVC065 01/M03 A3034 RMK AO2 SLP275 T00061033
                 =
2014-12-21 07:54 METAR KGED 211254Z AUTO 00000KT 6SM HZ OVC070 M01/M03 A3034 RMK AO2 SLP273
                 T10061033 =
2014-12-21 06:54 METAR KGED 211154Z AUTO 00000KT 8SM OVC075 M01/M04 A3034 RMK AO2 SLP273 I6001
                 T10061039 11006 21033 53012 =
2014-12-21 05:54 METAR KGED 211054Z AUTO 00000KT 8SM OVC075 M01/M03 A3031 RMK AO2 SLP266
                 T10111033 =
2014-12-21 04:54 METAR KGED 210954Z AUTO 00000KT 8SM OVC080 M02/M04 A3030 RMK AO2 SLP261
                 T10171039 =
2014-12-21 03:54 METAR KGED 210854Z AUTO 00000KT 8SM OVC080 M02/M04 A3030 RMK AO2 SLP262 I3001
                 T10221039 50002 =

Support USWX by starting your Amazon purchase here.